Time;durP1;ratioP1;P1;durP2;ratioP2;P2;SDS_P1;SDS_P2;PMS_P1;PMS_P2;Temp;Humidity;BMP_temperature;BMP_pressure;BME280_temperature;BME280_humidity;BME280_pressure;Samples;Min_cycle;Max_cycle;Signal;HPM_P1;HPM_P2
2023/08/21 00:01:29;;;;;;;8.00;4.30;;;22.00;99.90;;;;;;5069348;28;20025;-74
2023/08/21 00:03:55;;;;;;;5.95;4.85;;;22.00;99.90;;;;;;5071931;28;20021;-74
2023/08/21 00:06:20;;;;;;;5.88;3.92;;;22.00;99.90;;;;;;5071646;28;20109;-74
2023/08/21 00:08:46;;;;;;;5.22;3.85;;;21.90;99.90;;;;;;5078700;28;20490;-74
2023/08/21 00:11:12;;;;;;;7.82;3.70;;;21.90;99.90;;;;;;5076070;28;20022;-74
2023/08/21 00:13:37;;;;;;;6.68;4.75;;;21.90;99.90;;;;;;5076286;28;20031;-74
2023/08/21 00:16:03;;;;;;;7.53;3.50;;;22.00;99.90;;;;;;5081775;28;20017;-74
2023/08/21 00:18:28;;;;;;;6.43;4.13;;;22.00;99.90;;;;;;5078091;28;20372;-74
2023/08/21 00:20:54;;;;;;;7.75;4.07;;;22.00;99.90;;;;;;5070970;28;20025;-74
2023/08/21 00:23:19;;;;;;;8.50;3.97;;;22.00;99.90;;;;;;5080087;28;20399;-74
2023/08/21 00:25:47;;;;;;;10.35;4.32;;;21.90;99.90;;;;;;5081543;28;20387;-74
2023/08/21 00:28:12;;;;;;;8.98;3.92;;;21.90;99.90;;;;;;5073630;28;20028;-74
2023/08/21 00:30:38;;;;;;;8.48;3.97;;;22.00;99.90;;;;;;5076315;28;20032;-74
2023/08/21 00:33:04;;;;;;;5.95;3.65;;;22.00;99.90;;;;;;5079932;28;20019;-74
2023/08/21 00:35:29;;;;;;;3.33;3.03;;;22.00;99.90;;;;;;5086981;28;20052;-74
2023/08/21 00:37:55;;;;;;;15.77;4.75;;;22.00;99.90;;;;;;5078389;28;20029;-74
2023/08/21 00:40:20;;;;;;;5.03;3.60;;;22.00;99.90;;;;;;5080694;28;20032;-74
2023/08/21 00:42:46;;;;;;;8.57;4.00;;;22.00;99.90;;;;;;5080457;28;20045;-74
2023/08/21 00:45:11;;;;;;;5.93;4.28;;;22.00;99.90;;;;;;5072155;28;20073;-74
2023/08/21 00:47:37;;;;;;;5.20;3.30;;;22.10;99.90;;;;;;5068265;28;20065;-74
2023/08/21 00:50:05;;;;;;;7.63;4.32;;;22.00;99.90;;;;;;5070947;28;20433;-74
2023/08/21 00:52:31;;;;;;;6.28;4.43;;;22.00;99.90;;;;;;5071335;28;20056;-74
2023/08/21 00:54:57;;;;;;;5.38;3.65;;;22.00;99.90;;;;;;5061670;28;20448;-74
2023/08/21 00:57:23;;;;;;;8.18;4.13;;;22.00;99.90;;;;;;5084991;28;20366;-74
2023/08/21 00:59:49;;;;;;;6.68;3.88;;;22.00;99.90;;;;;;5076588;28;20426;-74
2023/08/21 01:02:14;;;;;;;4.60;3.88;;;22.10;99.90;;;;;;5073513;28;20383;-74
2023/08/21 01:04:40;;;;;;;6.60;3.05;;;22.10;99.90;;;;;;5065414;28;20025;-74
2023/08/21 01:07:10;;;;;;;4.18;3.45;;;21.90;99.90;;;;;;5070789;28;20104;-74
2023/08/21 01:09:54;;;;;;;11.43;3.30;;;21.90;99.90;;;;;;5071905;28;20028;-74
2023/08/21 01:12:46;;;;;;;6.28;3.45;;;21.90;99.90;;;;;;5078100;28;20067;-74
2023/08/21 01:15:13;;;;;;;8.07;4.25;;;21.90;99.90;;;;;;5075787;28;20025;-74
2023/08/21 01:17:40;;;;;;;8.55;3.78;;;21.90;99.90;;;;;;5078800;28;20024;-74
2023/08/21 01:20:10;;;;;;;5.30;3.90;;;21.90;99.90;;;;;;5078071;28;20020;-74
2023/08/21 01:22:37;;;;;;;4.68;4.00;;;21.90;99.90;;;;;;5075561;28;20051;-74
2023/08/21 01:25:07;;;;;;;7.30;4.20;;;21.90;99.90;;;;;;5079718;28;20029;-74
2023/08/21 01:27:35;;;;;;;5.25;3.97;;;21.90;99.90;;;;;;5078187;28;20024;-74
2023/08/21 01:30:02;;;;;;;5.72;4.05;;;22.00;99.90;;;;;;5068623;28;20029;-74
2023/08/21 01:32:47;;;;;;;6.13;3.42;;;22.00;99.90;;;;;;5075981;28;20031;-74
2023/08/21 01:35:13;;;;;;;5.57;3.75;;;21.90;99.90;;;;;;5071866;28;20032;-74
2023/08/21 01:37:39;;;;;;;4.90;4.20;;;21.90;99.90;;;;;;5072744;28;20028;-74
2023/08/21 01:40:05;;;;;;;3.80;3.30;;;21.90;99.90;;;;;;5072156;28;20537;-74
2023/08/21 01:42:31;;;;;;;6.25;4.30;;;21.90;99.90;;;;;;5082471;28;20032;-74
2023/08/21 01:44:56;;;;;;;4.30;3.90;;;21.90;99.90;;;;;;5070125;28;20025;-74
2023/08/21 01:47:22;;;;;;;7.45;4.10;;;21.90;99.90;;;;;;5079353;28;20034;-73
2023/08/21 01:49:48;;;;;;;7.05;4.00;;;21.90;99.90;;;;;;5088899;28;20031;-74
2023/08/21 01:52:13;;;;;;;8.45;5.20;;;21.90;99.90;;;;;;5069931;28;20021;-74
2023/08/21 01:54:39;;;;;;;7.55;4.70;;;21.90;99.90;;;;;;5063914;28;20020;-74
2023/08/21 01:57:05;;;;;;;8.52;4.55;;;22.00;99.90;;;;;;5070890;28;20029;-74
2023/08/21 01:59:30;;;;;;;9.85;4.50;;;21.90;99.90;;;;;;5070185;28;20039;-74
2023/08/21 02:01:56;;;;;;;9.15;5.43;;;21.90;99.90;;;;;;5070546;28;20032;-74
2023/08/21 02:04:21;;;;;;;6.93;4.80;;;22.00;99.90;;;;;;5075022;28;20102;-74
2023/08/21 02:06:47;;;;;;;7.63;4.75;;;21.80;99.90;;;;;;5067852;28;20154;-74
2023/08/21 02:09:12;;;;;;;6.45;4.10;;;21.70;99.90;;;;;;5062671;28;20021;-74
2023/08/21 02:11:38;;;;;;;4.65;3.88;;;21.60;99.90;;;;;;5070503;28;20386;-74
2023/08/21 02:14:04;;;;;;;5.05;4.28;;;21.60;99.90;;;;;;5075270;28;20471;-74
2023/08/21 02:16:29;;;;;;;7.80;4.57;;;21.60;99.90;;;;;;5070525;28;20111;-73
2023/08/21 02:18:55;;;;;;;7.85;4.60;;;21.60;99.90;;;;;;5066319;28;20057;-74
2023/08/21 02:21:21;;;;;;;6.85;4.15;;;21.60;99.90;;;;;;5071718;28;20028;-74
2023/08/21 02:23:46;;;;;;;12.95;5.18;;;21.60;99.90;;;;;;5076135;28;20032;-74
2023/08/21 02:26:12;;;;;;;10.73;5.03;;;21.60;99.90;;;;;;5075032;28;20391;-74
2023/08/21 02:28:37;;;;;;;8.43;4.55;;;21.50;99.90;;;;;;5079718;28;20028;-74
2023/08/21 02:31:03;;;;;;;10.00;4.93;;;21.40;99.90;;;;;;5074962;28;20028;-74
2023/08/21 02:33:28;;;;;;;10.25;4.60;;;21.30;99.90;;;;;;5084832;28;20020;-74
2023/08/21 02:35:54;;;;;;;8.13;4.40;;;21.30;99.90;;;;;;5084198;28;20052;-74
2023/08/21 02:38:19;;;;;;;6.45;4.50;;;21.20;99.90;;;;;;5074545;28;20036;-74
2023/08/21 02:40:45;;;;;;;6.88;5.03;;;21.20;99.90;;;;;;5085407;28;20020;-74
2023/08/21 02:43:10;;;;;;;10.43;4.88;;;21.10;99.90;;;;;;5086609;28;20048;-74
2023/08/21 02:45:36;;;;;;;6.85;4.10;;;21.00;99.90;;;;;;5076117;28;20384;-74
2023/08/21 02:48:02;;;;;;;6.50;4.97;;;21.00;99.90;;;;;;5081559;28;20008;-74
2023/08/21 02:50:27;;;;;;;8.98;4.55;;;21.10;99.90;;;;;;5082953;28;20028;-74
2023/08/21 02:52:53;;;;;;;8.27;4.93;;;21.10;99.90;;;;;;5080886;28;20498;-73
2023/08/21 02:55:20;;;;;;;8.75;5.18;;;21.10;99.90;;;;;;5082973;28;20016;-74
2023/08/21 02:57:45;;;;;;;7.50;4.90;;;21.20;99.90;;;;;;5072032;28;20086;-74
2023/08/21 03:00:11;;;;;;;8.68;4.57;;;21.20;99.90;;;;;;5077711;28;20037;-74
2023/08/21 03:02:37;;;;;;;4.95;4.30;;;21.20;99.90;;;;;;5081375;28;20054;-73
2023/08/21 03:05:04;;;;;;;5.30;4.80;;;21.10;99.90;;;;;;5087435;28;20024;-74
2023/08/21 03:07:29;;;;;;;4.75;4.35;;;21.10;99.90;;;;;;5072890;28;20028;-74
2023/08/21 03:09:55;;;;;;;11.77;4.95;;;21.00;99.90;;;;;;5076415;28;20534;-74
2023/08/21 03:12:20;;;;;;;12.35;5.75;;;21.10;99.90;;;;;;5074579;28;20020;-74
2023/08/21 03:14:46;;;;;;;13.10;6.18;;;21.10;99.90;;;;;;5080994;28;20036;-74
2023/08/21 03:17:11;;;;;;;9.20;4.97;;;21.00;99.90;;;;;;5080345;28;20393;-74
2023/08/21 03:19:37;;;;;;;8.95;5.47;;;20.90;99.90;;;;;;5082213;28;20402;-74
2023/08/21 03:22:03;;;;;;;10.73;5.85;;;20.90;99.90;;;;;;5079129;28;20024;-74
2023/08/21 03:24:28;;;;;;;5.90;4.88;;;20.80;99.90;;;;;;5085222;28;20036;-73
2023/08/21 03:26:54;;;;;;;7.53;4.40;;;20.80;99.90;;;;;;5078421;28;20029;-73
2023/08/21 03:29:19;;;;;;;6.32;4.75;;;20.80;99.90;;;;;;5074883;28;20530;-73
2023/08/21 03:31:50;;;;;;;7.03;5.10;;;20.90;99.90;;;;;;5069054;28;20073;-73
2023/08/21 03:34:15;;;;;;;10.23;4.95;;;20.90;99.90;;;;;;5084609;28;20170;-73
2023/08/21 03:36:41;;;;;;;12.63;5.63;;;20.90;99.90;;;;;;5067393;28;20028;-73
2023/08/21 03:39:06;;;;;;;12.45;5.13;;;20.80;99.90;;;;;;5079138;28;20134;-73
2023/08/21 03:41:32;;;;;;;6.60;5.15;;;20.80;99.90;;;;;;5079714;28;20043;-73
2023/08/21 03:43:58;;;;;;;6.28;4.45;;;20.80;99.90;;;;;;5071645;28;20398;-74
2023/08/21 03:46:23;;;;;;;10.65;5.00;;;20.80;99.90;;;;;;5079255;28;20036;-73
2023/08/21 03:48:50;;;;;;;5.90;4.82;;;20.70;99.90;;;;;;5085936;28;20052;-74
2023/08/21 03:51:16;;;;;;;6.90;4.95;;;20.60;99.90;;;;;;5081781;28;20070;-74
2023/08/21 03:53:41;;;;;;;11.32;4.53;;;20.60;99.90;;;;;;5061896;28;20020;-74
2023/08/21 03:56:07;;;;;;;7.60;5.03;;;20.60;99.90;;;;;;5072035;28;20059;-74
2023/08/21 03:58:33;;;;;;;7.82;4.88;;;20.60;99.90;;;;;;5063102;28;20024;-73
2023/08/21 04:00:58;;;;;;;9.20;4.95;;;20.60;99.90;;;;;;5070677;28;20025;-74
2023/08/21 04:03:25;;;;;;;8.45;5.15;;;20.60;99.90;;;;;;5067887;28;20450;-74
2023/08/21 04:05:52;;;;;;;12.88;6.32;;;20.50;99.90;;;;;;5072426;28;20170;-74
2023/08/21 04:08:18;;;;;;;8.60;6.30;;;20.50;99.90;;;;;;5083118;28;20043;-74
2023/08/21 04:10:43;;;;;;;9.00;5.53;;;20.40;99.90;;;;;;5064266;28;20024;-73
2023/08/21 04:13:09;;;;;;;10.60;5.00;;;20.40;99.90;;;;;;5066327;28;20560;-73
2023/08/21 04:15:37;;;;;;;9.63;5.70;;;20.30;99.90;;;;;;5067628;28;20398;-74
2023/08/21 04:18:03;;;;;;;5.78;4.57;;;20.30;99.90;;;;;;5067093;28;20016;-73
2023/08/21 04:20:29;;;;;;;6.88;5.13;;;20.20;99.90;;;;;;5070003;28;20060;-74
2023/08/21 04:22:54;;;;;;;9.82;6.22;;;20.10;99.90;;;;;;5068319;28;20106;-74
2023/08/21 04:25:20;;;;;;;7.72;5.40;;;20.10;99.90;;;;;;5078288;28;20034;-73
2023/08/21 04:27:46;;;;;;;10.32;5.43;;;20.10;99.90;;;;;;5073312;28;20378;-74
2023/08/21 04:30:12;;;;;;;7.30;5.93;;;20.20;99.90;;;;;;5079858;28;20031;-74
2023/08/21 04:32:38;;;;;;;5.20;4.70;;;20.20;99.90;;;;;;5075577;28;20495;-74
2023/08/21 04:35:05;;;;;;;8.13;5.32;;;20.30;99.90;;;;;;5054330;28;20383;-74
2023/08/21 04:37:30;;;;;;;8.63;6.00;;;20.40;99.90;;;;;;5053907;28;20036;-74
2023/08/21 04:39:56;;;;;;;8.07;5.07;;;20.40;99.90;;;;;;5059225;28;20766;-73
2023/08/21 04:42:22;;;;;;;16.08;5.53;;;20.40;99.90;;;;;;5069095;28;20078;-73
2023/08/21 04:44:48;;;;;;;8.50;5.53;;;20.40;99.90;;;;;;5068655;28;20434;-73
2023/08/21 04:47:26;;;;;;;11.00;5.38;;;20.50;99.90;;;;;;5069354;28;20549;-73
2023/08/21 04:49:53;;;;;;;13.80;5.60;;;20.50;99.90;;;;;;5060543;28;20034;-74
2023/08/21 04:52:20;;;;;;;16.45;5.53;;;20.60;99.90;;;;;;5066710;28;20024;-74
2023/08/21 04:54:49;;;;;;;12.30;4.82;;;20.80;99.90;;;;;;5064565;28;20093;-74
2023/08/21 04:57:15;;;;;;;11.07;6.07;;;21.00;99.90;;;;;;5052039;28;20025;-74
2023/08/21 04:59:41;;;;;;;8.73;5.05;;;21.10;99.90;;;;;;5051765;28;20048;-74
2023/08/21 05:02:07;;;;;;;8.05;5.35;;;21.10;99.90;;;;;;5063483;28;20431;-75
2023/08/21 05:04:34;;;;;;;15.10;5.18;;;21.20;99.90;;;;;;5068763;28;20028;-74
2023/08/21 05:07:00;;;;;;;7.15;5.45;;;21.20;99.90;;;;;;5061239;28;20025;-74
2023/08/21 05:09:25;;;;;;;8.43;5.20;;;21.10;99.90;;;;;;5067730;28;20078;-74
2023/08/21 05:11:51;;;;;;;7.35;5.07;;;21.00;99.90;;;;;;5069242;28;20017;-74
2023/08/21 05:14:19;;;;;;;11.93;5.57;;;21.00;99.90;;;;;;5068121;28;20502;-74
2023/08/21 05:16:45;;;;;;;10.40;5.70;;;21.00;99.90;;;;;;5070874;28;20429;-74
2023/08/21 05:19:10;;;;;;;8.52;5.50;;;20.90;99.90;;;;;;5057168;28;20121;-74
2023/08/21 05:21:36;;;;;;;7.50;4.72;;;21.00;99.90;;;;;;5066438;28;20059;-74
2023/08/21 05:24:01;;;;;;;13.60;5.85;;;21.00;99.90;;;;;;5067735;28;20048;-74
2023/08/21 05:26:27;;;;;;;10.57;5.55;;;21.10;99.90;;;;;;5065307;28;20036;-74
2023/08/21 05:28:52;;;;;;;9.63;5.05;;;21.20;99.90;;;;;;5066621;28;20479;-74
2023/08/21 05:31:23;;;;;;;10.50;5.10;;;21.40;99.90;;;;;;5067047;28;20111;-74
2023/08/21 05:33:49;;;;;;;5.57;4.25;;;21.60;99.90;;;;;;5074626;28;20033;-74
2023/08/21 05:36:14;;;;;;;6.30;5.20;;;21.90;99.90;;;;;;5098884;28;20027;-75
2023/08/21 05:38:40;;;;;;;14.60;4.65;;;21.90;99.90;;;;;;5087435;28;20074;-75
2023/08/21 05:41:06;;;;;;;11.43;4.55;;;21.80;99.90;;;;;;5092695;28;20038;-75
2023/08/21 05:43:31;;;;;;;9.52;4.63;;;21.80;99.90;;;;;;5074593;28;20029;-75
2023/08/21 05:45:57;;;;;;;10.55;5.05;;;21.70;99.90;;;;;;5074600;28;20074;-74
2023/08/21 05:48:22;;;;;;;8.23;4.47;;;21.70;99.90;;;;;;5074193;28;20398;-75
2023/08/21 05:50:52;;;;;;;6.22;4.50;;;21.50;99.90;;;;;;5074431;28;20016;-75
2023/08/21 05:53:17;;;;;;;7.57;5.00;;;21.30;99.90;;;;;;5081620;28;20033;-75
2023/08/21 05:55:43;;;;;;;4.93;4.30;;;21.20;99.90;;;;;;5094728;28;20539;-76
2023/08/21 05:58:08;;;;;;;9.02;5.18;;;21.10;99.90;;;;;;5071277;28;20035;-75
2023/08/21 06:00:35;;;;;;;13.57;5.53;;;21.10;99.90;;;;;;5066106;28;20487;-74
2023/08/21 06:03:01;;;;;;;10.00;5.18;;;21.10;99.90;;;;;;5067257;28;20055;-75
2023/08/21 06:05:27;;;;;;;10.73;4.85;;;21.20;99.90;;;;;;5067253;28;20146;-74
2023/08/21 06:07:52;;;;;;;6.60;5.15;;;21.30;99.90;;;;;;5067483;28;20475;-74
2023/08/21 06:10:18;;;;;;;9.65;5.03;;;21.40;99.90;;;;;;5072077;28;20035;-74
2023/08/21 06:12:44;;;;;;;6.97;4.93;;;21.40;99.90;;;;;;5069066;28;20020;-74
2023/08/21 06:15:10;;;;;;;8.35;5.03;;;21.50;99.90;;;;;;5073014;28;20032;-74
2023/08/21 06:17:36;;;;;;;7.85;4.97;;;21.50;99.90;;;;;;5067997;28;20028;-74
2023/08/21 06:20:05;;;;;;;6.70;4.20;;;21.50;99.90;;;;;;5072170;28;20024;-74
2023/08/21 06:22:34;;;;;;;8.73;5.55;;;21.60;99.90;;;;;;5069834;28;20028;-75
2023/08/21 06:24:59;;;;;;;12.48;4.95;;;21.70;99.90;;;;;;5068602;28;20473;-75
2023/08/21 06:27:25;;;;;;;9.30;4.55;;;21.80;99.90;;;;;;5073659;28;20036;-75
2023/08/21 06:29:51;;;;;;;6.82;4.38;;;21.90;99.90;;;;;;5071216;28;20032;-75
2023/08/21 06:32:16;;;;;;;10.02;4.55;;;22.00;99.90;;;;;;5068289;28;20020;-75
2023/08/21 06:34:42;;;;;;;10.30;5.45;;;22.10;99.90;;;;;;5069028;28;20473;-75
2023/08/21 06:37:07;;;;;;;11.93;4.90;;;22.10;99.90;;;;;;5070588;28;20024;-76
2023/08/21 06:39:34;;;;;;;9.52;4.85;;;22.10;99.90;;;;;;5071627;28;20108;-75
2023/08/21 06:42:00;;;;;;;10.30;3.70;;;22.20;99.90;;;;;;5080669;28;20382;-76
2023/08/21 06:44:26;;;;;;;10.90;5.28;;;22.20;99.90;;;;;;5086074;28;20032;-76
2023/08/21 06:46:51;;;;;;;7.07;4.28;;;22.30;99.90;;;;;;5084804;28;20029;-76
2023/08/21 06:49:17;;;;;;;12.90;4.80;;;22.40;99.90;;;;;;5070504;28;20040;-76
2023/08/21 06:51:43;;;;;;;8.60;5.25;;;22.50;99.90;;;;;;5068103;28;20437;-76
2023/08/21 06:54:08;;;;;;;12.10;5.43;;;22.50;99.90;;;;;;5089389;28;20013;-76
2023/08/21 06:56:34;;;;;;;9.13;4.78;;;22.40;99.90;;;;;;5077169;28;20032;-75
2023/08/21 06:58:59;;;;;;;6.95;4.15;;;22.50;99.90;;;;;;5073511;28;20541;-75
2023/08/21 07:01:25;;;;;;;6.28;3.67;;;22.40;99.90;;;;;;5080248;28;20483;-74
2023/08/21 07:03:50;;;;;;;5.72;3.70;;;22.40;99.90;;;;;;5080021;28;20081;-74
2023/08/21 07:06:16;;;;;;;8.68;3.72;;;22.40;99.90;;;;;;5070826;28;20035;-75
2023/08/21 07:08:42;;;;;;;7.63;4.15;;;22.40;99.90;;;;;;5077642;28;20096;-74
2023/08/21 07:11:09;;;;;;;6.00;3.05;;;22.50;99.90;;;;;;5067370;28;20031;-74
2023/08/21 07:13:35;;;;;;;9.60;2.75;;;22.60;99.90;;;;;;5073072;28;20036;-74
2023/08/21 07:16:05;;;;;;;6.72;3.53;;;22.60;99.90;;;;;;5072964;28;20111;-73
2023/08/21 07:18:33;;;;;;;5.43;3.38;;;22.80;99.90;;;;;;5073010;28;20029;-74
2023/08/21 07:20:59;;;;;;;7.63;3.10;;;22.80;99.90;;;;;;5080593;28;20028;-75
2023/08/21 07:23:24;;;;;;;7.95;2.50;;;22.80;99.90;;;;;;5082473;28;20367;-73
2023/08/21 07:25:50;;;;;;;10.45;3.60;;;22.90;99.90;;;;;;5084170;28;20027;-74
2023/08/21 07:28:15;;;;;;;8.13;2.13;;;22.90;99.80;;;;;;5085842;28;20017;-75
2023/08/21 07:30:41;;;;;;;3.65;2.22;;;23.00;99.90;;;;;;5072493;28;20029;-74
2023/08/21 07:33:06;;;;;;;4.80;2.10;;;23.00;99.30;;;;;;5073182;28;20074;-73
2023/08/21 07:35:32;;;;;;;5.60;3.10;;;23.20;99.70;;;;;;5082502;28;20020;-75
2023/08/21 07:37:58;;;;;;;7.15;2.47;;;23.40;98.90;;;;;;5092776;28;20406;-74
2023/08/21 07:40:24;;;;;;;5.00;2.58;;;23.60;98.80;;;;;;5083463;28;20031;-74
2023/08/21 07:42:49;;;;;;;9.77;2.58;;;23.70;98.60;;;;;;5072280;28;20024;-74
2023/08/21 07:45:15;;;;;;;2.35;2.00;;;23.70;97.60;;;;;;5065636;28;20025;-74
2023/08/21 07:47:41;;;;;;;3.58;1.80;;;23.80;97.60;;;;;;5071466;28;20033;-75
2023/08/21 07:50:07;;;;;;;4.72;1.63;;;23.80;96.90;;;;;;5072464;28;20021;-74
2023/08/21 07:52:34;;;;;;;8.00;2.85;;;23.80;96.80;;;;;;5072226;28;20049;-74
2023/08/21 07:55:00;;;;;;;4.70;2.03;;;23.90;96.90;;;;;;5074690;28;20077;-74
2023/08/21 07:57:28;;;;;;;3.80;1.80;;;23.80;97.10;;;;;;5083585;28;20025;-75
2023/08/21 07:59:53;;;;;;;6.25;1.50;;;23.80;97.00;;;;;;5072116;28;20162;-74
2023/08/21 08:02:19;;;;;;;5.13;2.17;;;23.80;96.70;;;;;;5072215;28;20119;-74
2023/08/21 08:04:45;;;;;;;4.20;1.85;;;23.80;96.70;;;;;;5083601;28;20111;-74
2023/08/21 08:07:11;;;;;;;5.75;2.00;;;23.70;96.70;;;;;;5092526;28;20024;-75
2023/08/21 08:09:36;;;;;;;5.50;1.85;;;23.70;96.90;;;;;;5072677;28;20036;-74
2023/08/21 08:12:02;;;;;;;3.70;2.00;;;23.80;96.70;;;;;;5071076;28;20024;-75
2023/08/21 08:14:28;;;;;;;5.90;2.08;;;23.80;96.90;;;;;;5080749;28;20028;-74
2023/08/21 08:16:53;;;;;;;9.48;1.50;;;23.90;96.30;;;;;;5092773;28;20092;-74
2023/08/21 08:19:19;;;;;;;7.05;1.98;;;23.90;96.00;;;;;;5092328;28;20073;-75
2023/08/21 08:21:44;;;;;;;6.15;2.05;;;23.90;95.90;;;;;;5091908;28;20027;-75
2023/08/21 08:24:10;;;;;;;5.80;1.88;;;24.00;96.00;;;;;;5086195;28;20024;-74
2023/08/21 08:26:35;;;;;;;4.68;1.55;;;24.00;95.90;;;;;;5071665;28;20032;-75
2023/08/21 08:29:01;;;;;;;4.22;1.30;;;24.00;95.70;;;;;;5068920;28;20025;-75
2023/08/21 08:31:27;;;;;;;3.75;1.73;;;24.20;95.80;;;;;;5076873;28;20017;-74
2023/08/21 08:33:56;;;;;;;3.30;1.70;;;24.20;95.60;;;;;;5071774;28;20486;-74
2023/08/21 08:36:21;;;;;;;7.72;2.28;;;24.30;95.40;;;;;;5078088;28;20106;-75
2023/08/21 08:38:47;;;;;;;10.20;1.90;;;24.20;95.20;;;;;;5079721;28;20127;-75
2023/08/21 08:41:29;;;;;;;8.45;2.22;;;24.30;95.40;;;;;;5071858;28;20032;-75
2023/08/21 08:43:57;;;;;;;7.40;2.50;;;24.50;95.40;;;;;;5071560;28;20372;-73
2023/08/21 08:46:24;;;;;;;4.95;1.90;;;24.60;95.10;;;;;;5087929;28;20028;-74
2023/08/21 08:48:51;;;;;;;3.33;1.45;;;24.70;94.60;;;;;;5091521;28;20031;-74
2023/08/21 08:51:17;;;;;;;5.32;1.52;;;24.60;94.20;;;;;;5092201;28;20024;-74
2023/08/21 08:53:43;;;;;;;3.50;1.65;;;24.50;93.90;;;;;;5076035;28;20144;-75
2023/08/21 08:56:08;;;;;;;4.20;1.00;;;24.40;93.70;;;;;;5076546;28;20453;-74
2023/08/21 08:58:34;;;;;;;6.25;1.92;;;24.20;93.70;;;;;;5071149;28;20390;-75
2023/08/21 09:01:00;;;;;;;3.38;1.67;;;24.20;93.80;;;;;;5068593;28;20021;-75
2023/08/21 09:03:26;;;;;;;6.50;1.58;;;24.20;94.20;;;;;;5083902;28;20039;-74
2023/08/21 09:05:51;;;;;;;5.10;2.00;;;24.30;93.90;;;;;;5074943;28;20377;-74
2023/08/21 09:08:17;;;;;;;6.47;1.38;;;24.40;93.90;;;;;;5087816;28;20277;-74
2023/08/21 09:10:45;;;;;;;5.00;1.92;;;24.60;93.50;;;;;;5070254;28;20056;-75
2023/08/21 09:13:18;;;;;;;5.88;1.63;;;24.70;93.40;;;;;;5071506;28;20070;-75
2023/08/21 09:15:52;;;;;;;4.25;1.50;;;24.90;93.30;;;;;;5082180;28;20028;-75
2023/08/21 09:18:18;;;;;;;4.90;1.95;;;25.00;93.70;;;;;;5091909;28;20028;-74
2023/08/21 09:20:43;;;;;;;10.68;2.25;;;25.00;93.40;;;;;;5072867;28;20034;-74
2023/08/21 09:23:14;;;;;;;7.45;1.95;;;25.10;92.90;;;;;;5085487;28;20016;-75
2023/08/21 09:25:40;;;;;;;5.53;1.25;;;24.90;93.40;;;;;;5071068;28;20062;-75
2023/08/21 09:28:07;;;;;;;7.28;1.60;;;24.80;93.60;;;;;;5071233;28;20021;-74
2023/08/21 09:30:50;;;;;;;6.68;1.77;;;24.70;93.50;;;;;;5071108;28;20475;-74
2023/08/21 09:33:21;;;;;;;7.28;2.03;;;24.70;93.60;;;;;;5069840;28;20031;-75
2023/08/21 09:35:47;;;;;;;4.53;1.80;;;24.70;93.60;;;;;;5073047;28;20059;-74
2023/08/21 09:38:14;;;;;;;5.90;1.77;;;24.80;93.70;;;;;;5086766;28;20376;-74
2023/08/21 09:40:51;;;;;;;5.35;1.48;;;24.90;93.20;;;;;;5072218;28;20107;-73
2023/08/21 09:43:16;;;;;;;4.22;1.42;;;25.00;92.70;;;;;;5070934;28;20522;-75
2023/08/21 09:45:46;;;;;;;2.58;1.38;;;25.00;92.60;;;;;;5070966;28;20055;-76
2023/08/21 09:48:13;;;;;;;4.63;1.65;;;25.00;92.20;;;;;;5071232;28;20096;-75
2023/08/21 09:50:40;;;;;;;6.07;1.55;;;25.00;92.60;;;;;;5083998;28;20028;-75
2023/08/21 09:53:07;;;;;;;6.88;2.08;;;25.00;92.60;;;;;;5071087;28;20029;-74
2023/08/21 09:55:33;;;;;;;5.78;1.50;;;25.10;92.90;;;;;;5070571;28;20395;-74
2023/08/21 09:57:59;;;;;;;5.57;1.60;;;25.20;93.30;;;;;;5070724;28;20029;-75
2023/08/21 10:00:34;;;;;;;5.82;1.60;;;25.40;92.60;;;;;;5071027;28;20541;-74
2023/08/21 10:03:03;;;;;;;7.78;1.58;;;25.40;92.70;;;;;;5071089;28;20024;-74
2023/08/21 10:05:31;;;;;;;4.50;1.42;;;25.30;92.70;;;;;;5069666;28;20032;-73
2023/08/21 10:08:03;;;;;;;5.57;1.58;;;25.20;92.70;;;;;;5069491;28;20034;-74
2023/08/21 10:10:36;;;;;;;5.22;1.73;;;25.20;92.90;;;;;;5082665;28;20025;-75
2023/08/21 10:13:04;;;;;;;5.53;1.48;;;25.20;92.60;;;;;;5078871;28;20048;-75
2023/08/21 10:15:30;;;;;;;5.65;1.48;;;25.30;92.70;;;;;;5094541;28;20021;-74
2023/08/21 10:17:57;;;;;;;5.18;1.55;;;25.50;92.40;;;;;;5094634;28;20020;-74
2023/08/21 10:20:26;;;;;;;3.05;1.10;;;25.50;92.10;;;;;;5085236;28;20118;-75
2023/08/21 10:23:00;;;;;;;3.35;1.05;;;25.60;91.80;;;;;;5086046;28;20024;-78
2023/08/21 10:25:26;;;;;;;2.95;1.42;;;25.70;91.60;;;;;;5084046;28;20032;-75
2023/08/21 10:28:04;;;;;;;6.45;1.45;;;25.80;91.60;;;;;;5074164;28;20078;-75
2023/08/21 10:30:30;;;;;;;4.85;1.30;;;25.90;91.30;;;;;;5074376;28;20482;-75
2023/08/21 10:32:58;;;;;;;4.43;1.33;;;26.10;91.00;;;;;;5074287;28;20024;-74
2023/08/21 10:35:29;;;;;;;4.13;1.35;;;26.20;90.40;;;;;;5080719;28;20390;-75
2023/08/21 10:38:11;;;;;;;3.95;1.15;;;26.40;90.50;;;;;;5085623;28;20028;-74
2023/08/21 10:40:39;;;;;;;3.17;0.90;;;26.50;89.30;;;;;;5075989;28;20040;-75
2023/08/21 10:43:25;;;;;;;3.40;0.80;;;26.50;88.50;;;;;;5074179;28;20096;-74
2023/08/21 10:45:55;;;;;;;9.23;1.50;;;26.40;89.00;;;;;;5092892;28;20055;-73
2023/08/21 10:48:21;;;;;;;8.25;1.63;;;26.50;89.10;;;;;;5094090;28;20028;-74
2023/08/21 10:50:47;;;;;;;10.07;1.90;;;26.50;87.90;;;;;;5093992;28;20039;-74
2023/08/21 10:53:13;;;;;;;7.00;1.50;;;26.60;88.60;;;;;;5083017;28;20016;-75
2023/08/21 10:55:38;;;;;;;4.85;1.10;;;26.60;87.70;;;;;;5085617;28;20029;-75
2023/08/21 10:58:04;;;;;;;3.92;1.52;;;26.50;87.70;;;;;;5073522;28;20440;-74
2023/08/21 11:00:30;;;;;;;5.93;1.80;;;26.50;88.00;;;;;;5073812;28;20040;-73
2023/08/21 11:02:55;;;;;;;5.90;2.78;;;26.60;88.20;;;;;;5073490;28;20509;-74
2023/08/21 11:05:21;;;;;;;6.30;2.90;;;26.80;88.50;;;;;;5073673;28;20024;-74
2023/08/21 11:07:48;;;;;;;6.03;1.00;;;27.00;87.40;;;;;;5073393;28;20437;-75
2023/08/21 11:10:16;;;;;;;6.78;1.17;;;26.90;86.10;;;;;;5071685;28;20025;-74
2023/08/21 11:12:48;;;;;;;3.22;0.95;;;26.70;86.60;;;;;;5081630;28;20056;-74
2023/08/21 11:15:16;;;;;;;6.75;0.80;;;26.60;85.80;;;;;;5087721;28;20062;-74
2023/08/21 11:17:41;;;;;;;5.10;1.00;;;26.50;86.50;;;;;;5093022;28;20043;-75
2023/08/21 11:20:08;;;;;;;5.35;1.30;;;26.60;87.20;;;;;;5093509;28;20538;-77
2023/08/21 11:22:33;;;;;;;3.85;1.02;;;26.70;87.00;;;;;;5084723;28;20032;-75
2023/08/21 11:24:59;;;;;;;7.47;1.38;;;26.50;86.30;;;;;;5072934;28;20111;-75
2023/08/21 11:27:25;;;;;;;4.18;1.38;;;26.30;85.50;;;;;;5079134;28;20083;-74
2023/08/21 11:29:52;;;;;;;6.78;2.00;;;26.10;86.60;;;;;;5084471;28;20115;-75
2023/08/21 11:32:24;;;;;;;3.85;1.33;;;26.20;86.70;;;;;;5093496;28;20028;-76
2023/08/21 11:34:52;;;;;;;4.55;0.80;;;26.30;85.30;;;;;;5093247;28;20020;-73
2023/08/21 11:37:19;;;;;;;14.05;1.52;;;26.40;85.90;;;;;;5092113;28;20433;-74
2023/08/21 11:39:48;;;;;;;4.28;1.58;;;26.50;85.80;;;;;;5068861;28;20073;-73
2023/08/21 11:42:14;;;;;;;2.05;0.73;;;26.60;84.90;;;;;;5075576;28;20488;-74
2023/08/21 11:44:49;;;;;;;3.85;0.95;;;26.60;84.70;;;;;;5084350;28;20028;-78
2023/08/21 11:47:16;;;;;;;6.82;1.13;;;26.50;84.10;;;;;;5093435;28;20103;-75
2023/08/21 11:49:43;;;;;;;4.18;1.58;;;26.50;84.30;;;;;;5076112;28;20033;-75
2023/08/21 11:52:10;;;;;;;2.45;0.80;;;26.40;84.20;;;;;;5085261;28;20405;-75
2023/08/21 11:54:37;;;;;;;1.92;0.70;;;26.40;83.80;;;;;;5072088;28;20040;-76
2023/08/21 11:57:13;;;;;;;7.30;1.00;;;26.40;83.80;;;;;;5071201;28;20040;-74
2023/08/21 11:59:39;;;;;;;3.72;0.77;;;26.50;83.10;;;;;;5081676;28;20024;-75
2023/08/21 12:02:21;;;;;;;4.65;1.20;;;26.60;84.20;;;;;;5090977;28;20352;-75
2023/08/21 12:05:01;;;;;;;3.10;0.98;;;26.70;82.30;;;;;;5072213;28;20038;-74
2023/08/21 12:07:26;;;;;;;6.47;1.13;;;26.60;81.60;;;;;;5072110;28;20173;-74
2023/08/21 12:09:52;;;;;;;4.63;1.05;;;26.70;80.90;;;;;;5071718;28;20076;-75
2023/08/21 12:12:17;;;;;;;6.28;1.25;;;26.70;80.80;;;;;;5072420;28;20024;-75
2023/08/21 12:14:43;;;;;;;2.78;1.00;;;26.70;81.50;;;;;;5079429;28;20031;-75
2023/08/21 12:17:08;;;;;;;6.28;0.77;;;26.70;81.80;;;;;;5071812;28;20028;-75
2023/08/21 12:19:34;;;;;;;1.73;0.90;;;26.70;81.70;;;;;;5080236;28;20084;-75
2023/08/21 12:22:00;;;;;;;7.20;0.57;;;26.80;81.10;;;;;;5089424;28;20078;-74
2023/08/21 12:24:25;;;;;;;3.25;0.60;;;26.80;82.00;;;;;;5067267;28;20085;-74
2023/08/21 12:26:52;;;;;;;3.83;0.93;;;26.70;80.00;;;;;;5071719;28;20025;-75
2023/08/21 12:29:17;;;;;;;4.50;1.17;;;26.60;79.90;;;;;;5071911;28;20095;-75
2023/08/21 12:31:43;;;;;;;3.83;0.80;;;26.50;80.50;;;;;;5078600;28;20501;-73
2023/08/21 12:34:08;;;;;;;4.00;0.70;;;26.40;81.10;;;;;;5065313;28;20020;-73
2023/08/21 12:36:36;;;;;;;5.50;1.20;;;26.40;81.30;;;;;;5072023;28;20021;-74
2023/08/21 12:39:03;;;;;;;2.97;1.02;;;26.40;81.70;;;;;;5071189;28;20036;-74
2023/08/21 12:41:28;;;;;;;3.42;1.17;;;26.50;80.10;;;;;;5072232;28;20024;-74
2023/08/21 12:43:54;;;;;;;7.30;1.13;;;26.50;81.10;;;;;;5074092;28;20533;-75